createdAt,value
2019-06-20T00:00:03.556Z,0.00
2019-06-20T00:01:03.532Z,0.00
2019-06-20T00:02:03.518Z,0.00
2019-06-20T00:03:03.510Z,0.00
2019-06-20T00:04:03.500Z,0.00
2019-06-20T00:05:03.496Z,0.00
2019-06-20T00:06:03.497Z,0.00
2019-06-20T00:07:03.472Z,0.00
2019-06-20T00:08:03.459Z,0.00
2019-06-20T00:09:03.449Z,0.00
2019-06-20T00:10:03.516Z,0.00
2019-06-20T00:11:03.422Z,0.00
2019-06-20T00:12:03.411Z,0.00
2019-06-20T00:13:03.410Z,0.00
2019-06-20T00:14:03.388Z,0.00
2019-06-20T00:15:03.416Z,0.00
2019-06-20T00:16:03.384Z,0.00
2019-06-20T00:17:03.373Z,0.00
2019-06-20T00:18:03.346Z,0.00
2019-06-20T00:19:03.337Z,0.00
2019-06-20T00:20:03.351Z,0.00
2019-06-20T00:21:03.345Z,0.00
2019-06-20T00:22:03.302Z,0.00
2019-06-20T00:23:03.290Z,0.00
2019-06-20T00:24:03.279Z,0.00
2019-06-20T00:25:03.277Z,0.00
2019-06-20T00:26:03.259Z,0.00
2019-06-20T00:27:03.253Z,0.00
2019-06-20T00:28:03.377Z,0.00
2019-06-20T00:29:03.297Z,0.00
2019-06-20T00:30:03.232Z,0.00
2019-06-20T00:31:03.211Z,0.00
2019-06-20T00:32:03.200Z,0.00
2019-06-20T00:33:03.193Z,0.00
2019-06-20T00:34:03.175Z,0.00
2019-06-20T00:35:03.172Z,0.00
2019-06-20T00:36:03.156Z,0.00
2019-06-20T00:37:03.140Z,0.00
2019-06-20T00:38:03.133Z,0.00
2019-06-20T00:39:03.123Z,0.00
2019-06-20T00:40:03.124Z,0.00
2019-06-20T00:41:03.103Z,0.00
2019-06-20T00:42:03.194Z,0.00
2019-06-20T00:43:16.392Z,0.00
2019-06-20T00:44:04.067Z,0.00
2019-06-20T00:45:03.063Z,0.00
2019-06-20T00:46:03.054Z,0.00
2019-06-20T00:47:03.032Z,0.00
2019-06-20T00:48:03.030Z,0.00
2019-06-20T00:49:03.011Z,0.00
2019-06-20T00:50:03.029Z,0.00
2019-06-20T00:51:03.035Z,0.00
2019-06-20T00:52:02.978Z,0.00
2019-06-20T00:53:02.967Z,0.00
2019-06-20T00:54:02.957Z,0.00
2019-06-20T00:55:02.945Z,0.00
2019-06-20T00:56:02.940Z,0.00
2019-06-20T00:57:02.922Z,0.00
2019-06-20T00:58:02.911Z,0.00
2019-06-20T00:59:02.907Z,0.00
2019-06-20T01:00:02.950Z,0.00
2019-06-20T01:01:02.890Z,0.00
2019-06-20T01:02:02.876Z,0.00
2019-06-20T01:03:02.856Z,0.00
2019-06-20T01:04:02.851Z,0.00
2019-06-20T01:05:02.855Z,0.00
2019-06-20T01:06:02.833Z,0.00
2019-06-20T01:07:02.816Z,0.00
2019-06-20T01:08:02.804Z,0.00
2019-06-20T01:09:02.798Z,0.00
2019-06-20T01:10:02.789Z,0.00
2019-06-20T01:11:02.805Z,0.00
2019-06-20T01:12:02.761Z,0.00
2019-06-20T01:13:02.751Z,0.00
2019-06-20T01:14:02.744Z,0.00
2019-06-20T01:15:02.730Z,0.00
2019-06-20T01:16:02.767Z,0.00
2019-06-20T01:17:02.722Z,0.00
2019-06-20T01:18:02.709Z,0.00
2019-06-20T01:19:02.691Z,0.00
2019-06-20T01:20:02.674Z,0.00
2019-06-20T01:21:02.674Z,0.00
2019-06-20T01:22:02.658Z,0.00
2019-06-20T01:23:02.644Z,0.00
2019-06-20T01:24:02.638Z,0.00
2019-06-20T01:25:02.626Z,0.00
2019-06-20T01:26:02.625Z,0.00
2019-06-20T01:27:02.598Z,0.00
2019-06-20T01:28:02.605Z,0.00
2019-06-20T01:29:02.588Z,0.00
2019-06-20T01:30:02.567Z,0.00
2019-06-20T01:31:02.576Z,0.00
2019-06-20T01:32:02.547Z,0.00
2019-06-20T01:33:02.558Z,0.00
2019-06-20T01:34:02.562Z,0.00
2019-06-20T01:35:02.515Z,0.00
2019-06-20T01:36:02.515Z,0.00
2019-06-20T01:37:02.493Z,0.00
2019-06-20T01:38:02.483Z,0.00
2019-06-20T01:39:02.474Z,0.00
2019-06-20T01:40:02.462Z,0.00
2019-06-20T01:41:06.003Z,0.00
2019-06-20T01:42:02.446Z,0.00
2019-06-20T01:43:02.428Z,0.00
2019-06-20T01:44:02.416Z,0.00
2019-06-20T01:45:02.403Z,0.00
2019-06-20T01:46:02.404Z,0.00
2019-06-20T01:47:02.538Z,0.00
2019-06-20T01:48:02.373Z,0.00
2019-06-20T01:49:02.362Z,0.00
2019-06-20T01:50:02.350Z,0.00
2019-06-20T01:51:02.372Z,0.00
2019-06-20T01:52:02.327Z,0.00
2019-06-20T01:53:02.319Z,0.00
2019-06-20T01:54:02.308Z,0.00
2019-06-20T01:55:02.297Z,0.00
2019-06-20T01:56:02.322Z,0.00
2019-06-20T01:57:02.321Z,0.00
2019-06-20T01:58:02.264Z,0.00
2019-06-20T01:59:02.253Z,0.00
2019-06-20T02:00:02.242Z,0.00
2019-06-20T02:01:02.276Z,0.00
2019-06-20T02:02:02.225Z,0.00
2019-06-20T02:03:02.212Z,0.00
2019-06-20T02:04:02.202Z,0.00
2019-06-20T02:05:02.197Z,0.00
2019-06-20T02:06:02.229Z,0.00
2019-06-20T02:07:02.177Z,0.00
2019-06-20T02:08:02.154Z,0.00
2019-06-20T02:09:02.153Z,0.00
2019-06-20T02:10:02.133Z,4.00
2019-06-20T02:11:02.123Z,4.00
2019-06-20T02:12:02.122Z,4.00
2019-06-20T02:13:02.106Z,0.00
2019-06-20T02:14:07.306Z,0.00
2019-06-20T02:15:03.091Z,4.00
2019-06-20T02:16:02.074Z,4.00
2019-06-20T02:17:02.087Z,4.00
2019-06-20T02:18:02.046Z,4.00
2019-06-20T02:19:02.037Z,4.00
2019-06-20T02:20:02.028Z,4.00
2019-06-20T02:21:02.016Z,8.00
2019-06-20T02:22:02.026Z,4.00
2019-06-20T02:23:02.007Z,8.00
2019-06-20T02:24:01.981Z,8.00
2019-06-20T02:25:01.992Z,12.00
2019-06-20T02:26:01.963Z,8.00
2019-06-20T02:27:01.961Z,12.00
2019-06-20T02:28:01.937Z,12.00
2019-06-20T02:29:01.929Z,12.00
2019-06-20T02:30:01.917Z,16.00
2019-06-20T02:31:01.912Z,20.00
2019-06-20T02:32:01.909Z,20.00
2019-06-20T02:33:01.884Z,20.00
2019-06-20T02:34:01.871Z,24.00
2019-06-20T02:35:01.899Z,28.00
2019-06-20T02:36:01.856Z,28.00
2019-06-20T02:37:01.857Z,32.00
2019-06-20T02:38:01.827Z,32.00
2019-06-20T02:39:01.828Z,40.00
2019-06-20T02:40:01.808Z,40.00
2019-06-20T02:41:01.796Z,44.00
2019-06-20T02:42:01.797Z,48.00
2019-06-20T02:43:01.785Z,52.00
2019-06-20T02:44:01.762Z,52.00
2019-06-20T02:45:01.751Z,60.00
2019-06-20T02:46:01.740Z,60.00
2019-06-20T02:47:01.738Z,64.00
2019-06-20T02:48:01.720Z,72.00
2019-06-20T02:49:01.711Z,76.00
2019-06-20T02:50:01.705Z,76.00
2019-06-20T02:51:01.685Z,84.00
2019-06-20T02:52:01.691Z,88.00
2019-06-20T02:53:01.723Z,96.00
2019-06-20T02:54:01.653Z,96.00
2019-06-20T02:55:01.641Z,108.00
2019-06-20T02:56:01.632Z,108.00
2019-06-20T02:57:01.631Z,116.00
2019-06-20T02:58:01.609Z,124.00
2019-06-20T02:59:01.604Z,128.00
2019-06-20T03:00:01.791Z,136.00
2019-06-20T03:01:01.576Z,140.00
2019-06-20T03:02:01.576Z,148.00
2019-06-20T03:03:01.577Z,156.00
2019-06-20T03:04:01.552Z,160.00
2019-06-20T03:05:01.542Z,168.00
2019-06-20T03:06:01.522Z,176.00
2019-06-20T03:07:01.522Z,184.00
2019-06-20T03:08:01.501Z,188.00
2019-06-20T03:09:01.489Z,200.00
2019-06-20T03:10:01.482Z,208.00
2019-06-20T03:11:01.479Z,216.00
2019-06-20T03:12:01.467Z,228.00
2019-06-20T03:13:01.444Z,244.00
2019-06-20T03:14:01.437Z,260.00
2019-06-20T03:15:01.445Z,272.00
2019-06-20T03:16:01.417Z,280.00
2019-06-20T03:17:01.442Z,284.00
2019-06-20T03:18:01.395Z,280.00
2019-06-20T03:19:01.389Z,276.00
2019-06-20T03:20:01.371Z,272.00
2019-06-20T03:21:01.360Z,272.00
2019-06-20T03:22:01.455Z,276.00
2019-06-20T03:23:01.348Z,280.00
2019-06-20T03:24:01.328Z,288.00
2019-06-20T03:25:01.318Z,304.00
2019-06-20T03:26:01.314Z,312.00
2019-06-20T03:27:01.298Z,328.00
2019-06-20T03:28:01.297Z,340.00
2019-06-20T03:29:01.283Z,348.00
2019-06-20T03:30:01.264Z,356.00
2019-06-20T03:31:01.253Z,364.00
2019-06-20T03:32:01.239Z,364.00
2019-06-20T03:33:01.285Z,376.00
2019-06-20T03:34:01.218Z,380.00
2019-06-20T03:35:01.211Z,388.00
2019-06-20T03:36:01.203Z,388.00
2019-06-20T03:37:01.240Z,392.00
2019-06-20T03:38:01.189Z,396.00
2019-06-20T03:39:01.164Z,408.00
2019-06-20T03:40:01.154Z,420.00
2019-06-20T03:41:01.144Z,432.00
2019-06-20T03:42:01.137Z,452.00
2019-06-20T03:43:01.134Z,464.00
2019-06-20T03:44:01.115Z,476.00
2019-06-20T03:45:02.506Z,492.00
2019-06-20T03:46:01.096Z,508.00
2019-06-20T03:47:01.077Z,520.00
2019-06-20T03:48:01.081Z,536.00
2019-06-20T03:49:01.057Z,556.00
2019-06-20T03:50:01.061Z,572.00
2019-06-20T03:51:01.037Z,596.00
2019-06-20T03:52:01.027Z,616.00
2019-06-20T03:53:01.024Z,632.00
2019-06-20T03:54:00.999Z,644.00
2019-06-20T03:55:00.992Z,652.00
2019-06-20T03:56:00.979Z,672.00
2019-06-20T03:57:00.977Z,684.00
2019-06-20T03:58:00.985Z,700.00
2019-06-20T03:59:00.953Z,712.00
2019-06-20T04:00:00.941Z,724.00
2019-06-20T04:01:00.925Z,744.00
2019-06-20T04:02:00.918Z,752.00
2019-06-20T04:03:00.914Z,760.00
2019-06-20T04:04:00.894Z,772.00
2019-06-20T04:05:00.883Z,784.00
2019-06-20T04:06:00.870Z,804.00
2019-06-20T04:07:00.859Z,820.00
2019-06-20T04:08:00.858Z,836.00
2019-06-20T04:09:00.840Z,852.00
2019-06-20T04:10:00.847Z,868.00
2019-06-20T04:11:00.822Z,880.00
2019-06-20T04:12:00.804Z,892.00
2019-06-20T04:13:00.822Z,904.00
2019-06-20T04:14:00.787Z,920.00
2019-06-20T04:15:00.773Z,936.00
2019-06-20T04:16:00.762Z,956.00
2019-06-20T04:17:00.843Z,972.00
2019-06-20T04:18:00.755Z,980.00
2019-06-20T04:19:00.735Z,984.00
2019-06-20T04:20:00.729Z,1004.00
2019-06-20T04:21:00.713Z,1012.00
2019-06-20T04:22:00.704Z,1024.00
2019-06-20T04:23:00.733Z,1044.00
2019-06-20T04:24:00.678Z,1064.00
2019-06-20T04:25:00.706Z,1088.00
2019-06-20T04:26:00.659Z,1116.00
2019-06-20T04:27:00.648Z,1136.00
2019-06-20T04:28:00.646Z,1156.00
2019-06-20T04:29:00.621Z,1172.00
2019-06-20T04:30:00.620Z,1188.00
2019-06-20T04:31:00.598Z,1204.00
2019-06-20T04:32:00.589Z,1220.00
2019-06-20T04:33:00.929Z,1236.00
2019-06-20T04:34:00.577Z,1252.00
2019-06-20T04:35:00.556Z,1268.00
2019-06-20T04:36:00.545Z,1284.00
2019-06-20T04:37:00.542Z,1304.00
2019-06-20T04:38:00.528Z,1336.00
2019-06-20T04:39:00.527Z,1360.00
2019-06-20T04:40:00.502Z,1272.00
2019-06-20T04:41:00.495Z,1380.00
2019-06-20T04:42:00.484Z,1448.00
2019-06-20T04:43:00.469Z,1484.00
2019-06-20T04:44:00.471Z,1516.00
2019-06-20T04:45:00.452Z,1552.00
2019-06-20T04:46:00.438Z,1596.00
2019-06-20T04:47:00.425Z,1640.00
2019-06-20T04:48:00.419Z,1692.00
2019-06-20T04:49:00.415Z,1748.00
2019-06-20T04:50:00.405Z,1808.00
2019-06-20T04:51:00.390Z,1812.00
2019-06-20T04:52:00.378Z,1804.00
2019-06-20T04:53:00.369Z,2012.00
2019-06-20T04:54:00.366Z,2160.00
2019-06-20T04:55:00.340Z,2256.00
2019-06-20T04:56:00.331Z,2348.00
2019-06-20T04:57:00.320Z,2416.00
2019-06-20T04:58:00.306Z,2444.00
2019-06-20T04:59:00.310Z,2364.00
2019-06-20T05:00:00.287Z,2416.00
2019-06-20T05:01:00.283Z,2520.00
2019-06-20T05:02:00.267Z,2692.00
2019-06-20T05:03:00.289Z,2796.00
2019-06-20T05:04:00.256Z,2924.00
2019-06-20T05:05:00.234Z,3104.00
2019-06-20T05:06:00.226Z,3376.00
2019-06-20T05:07:00.211Z,3708.00
2019-06-20T05:08:00.198Z,4064.00
2019-06-20T05:09:00.216Z,4356.00
2019-06-20T05:10:00.186Z,4740.00
2019-06-20T05:11:00.179Z,5156.00
2019-06-20T05:12:00.195Z,5484.00
2019-06-20T05:13:00.151Z,5628.00
2019-06-20T05:14:00.177Z,5184.00
2019-06-20T05:15:00.139Z,5268.00
2019-06-20T05:16:00.114Z,4936.00
2019-06-20T05:17:00.103Z,4732.00
2019-06-20T05:18:00.104Z,3896.00
2019-06-20T05:19:00.090Z,3200.00
2019-06-20T05:20:00.076Z,3032.00
2019-06-20T05:21:00.058Z,2832.00
2019-06-20T05:22:00.043Z,2780.00
2019-06-20T05:23:00.039Z,2788.00
2019-06-20T05:24:00.031Z,2812.00
2019-06-20T05:25:00.017Z,2940.00
2019-06-20T05:26:00.002Z,2768.00
2019-06-20T05:27:00.005Z,2996.00
2019-06-20T05:27:59.982Z,3028.00
2019-06-20T05:28:59.984Z,4024.00
2019-06-20T05:29:59.965Z,4232.00
2019-06-20T05:30:59.947Z,4124.00
2019-06-20T05:31:59.935Z,3592.00
2019-06-20T05:32:59.924Z,3604.00
2019-06-20T05:33:59.935Z,3628.00
2019-06-20T05:35:02.904Z,3796.00
2019-06-20T05:35:59.921Z,3876.00
2019-06-20T05:37:00.011Z,4332.00
2019-06-20T05:37:59.870Z,4492.00
2019-06-20T05:38:59.888Z,3520.00
2019-06-20T05:39:59.851Z,3532.00
2019-06-20T05:40:59.840Z,3184.00
2019-06-20T05:41:59.867Z,2680.00
2019-06-20T05:42:59.833Z,2496.00
2019-06-20T05:43:59.828Z,2212.00
2019-06-20T05:44:59.815Z,2008.00
2019-06-20T05:46:09.292Z,1860.00
2019-06-20T05:47:11.872Z,1740.00
2019-06-20T05:48:00.767Z,1864.00
2019-06-20T05:48:59.771Z,2476.00
2019-06-20T05:49:59.765Z,1924.00
2019-06-20T05:50:59.743Z,1696.00
2019-06-20T05:51:59.731Z,1764.00
2019-06-20T05:52:59.714Z,1748.00
2019-06-20T05:53:59.710Z,1852.00
2019-06-20T05:54:59.717Z,1944.00
2019-06-20T05:55:59.721Z,1972.00
2019-06-20T05:57:03.318Z,1988.00
2019-06-20T05:57:59.678Z,2032.00
2019-06-20T05:58:59.660Z,2096.00
2019-06-20T05:59:59.655Z,2152.00
2019-06-20T06:00:59.630Z,2208.00
2019-06-20T06:01:59.643Z,2280.00
2019-06-20T06:02:59.636Z,2380.00
2019-06-20T06:03:59.599Z,2456.00
2019-06-20T06:04:59.593Z,2508.00
2019-06-20T06:05:59.579Z,2564.00
2019-06-20T06:06:59.565Z,2568.00
2019-06-20T06:07:59.562Z,2576.00
2019-06-20T06:08:59.535Z,2460.00
2019-06-20T06:10:03.680Z,2304.00
2019-06-20T06:10:59.523Z,2144.00
2019-06-20T06:11:59.518Z,1948.00
2019-06-20T06:12:59.497Z,1776.00
2019-06-20T06:13:59.509Z,1592.00
2019-06-20T06:15:00.989Z,1396.00
2019-06-20T06:16:00.251Z,1228.00
2019-06-20T06:16:59.459Z,1100.00
2019-06-20T06:17:59.445Z,1000.00
2019-06-20T06:18:59.439Z,928.00
2019-06-20T06:19:59.429Z,860.00
2019-06-20T06:20:59.414Z,800.00
2019-06-20T06:21:59.409Z,756.00
2019-06-20T06:22:59.401Z,732.00
2019-06-20T06:23:59.705Z,712.00
2019-06-20T06:24:59.375Z,712.00
2019-06-20T06:25:59.359Z,556.00
2019-06-20T06:27:00.060Z,584.00
2019-06-20T06:27:59.340Z,708.00
2019-06-20T06:28:59.324Z,712.00
2019-06-20T06:29:59.320Z,700.00
2019-06-20T06:30:59.302Z,700.00
2019-06-20T06:31:59.287Z,708.00
2019-06-20T06:32:59.286Z,728.00
2019-06-20T06:33:59.264Z,740.00
2019-06-20T06:34:59.271Z,752.00
2019-06-20T06:35:59.248Z,808.00
2019-06-20T06:36:59.230Z,900.00
2019-06-20T06:37:59.218Z,1000.00
2019-06-20T06:38:59.208Z,1044.00
2019-06-20T06:39:59.241Z,1060.00
2019-06-20T06:40:59.188Z,1084.00
2019-06-20T06:41:59.217Z,1140.00
2019-06-20T06:42:59.166Z,1228.00
2019-06-20T06:43:59.174Z,1388.00
2019-06-20T06:44:59.155Z,1488.00
2019-06-20T06:45:59.144Z,1516.00
2019-06-20T06:46:59.774Z,1472.00
2019-06-20T06:47:59.108Z,1400.00
2019-06-20T06:48:59.103Z,1432.00
2019-06-20T06:49:59.100Z,1608.00
2019-06-20T06:50:59.082Z,1780.00
2019-06-20T06:51:59.071Z,1832.00
2019-06-20T06:52:59.061Z,1836.00
2019-06-20T06:53:59.055Z,1848.00
2019-06-20T06:54:59.066Z,1876.00
2019-06-20T06:55:59.036Z,1884.00
2019-06-20T06:56:59.021Z,1832.00
2019-06-20T06:57:59.010Z,1732.00
2019-06-20T06:58:59.003Z,1604.00
2019-06-20T06:59:58.997Z,1508.00
2019-06-20T07:00:59.009Z,1456.00
2019-06-20T07:01:58.962Z,1448.00
2019-06-20T07:02:58.949Z,1488.00
2019-06-20T07:03:58.936Z,1516.00
2019-06-20T07:04:58.929Z,1568.00
2019-06-20T07:05:58.926Z,1656.00
2019-06-20T07:06:58.915Z,1772.00
2019-06-20T07:07:58.911Z,1912.00
2019-06-20T07:08:58.912Z,2060.00
2019-06-20T07:09:58.873Z,2264.00
2019-06-20T07:10:58.875Z,2484.00
2019-06-20T07:11:58.853Z,2612.00
2019-06-20T07:12:58.842Z,2612.00
2019-06-20T07:13:58.833Z,2640.00
2019-06-20T07:14:58.836Z,2764.00
2019-06-20T07:15:58.820Z,2972.00
2019-06-20T07:17:00.684Z,3208.00
2019-06-20T07:17:58.785Z,3344.00
2019-06-20T07:18:58.795Z,3288.00
2019-06-20T07:19:58.773Z,3116.00
2019-06-20T07:20:58.785Z,2892.00
2019-06-20T07:21:58.741Z,2732.00
2019-06-20T07:22:58.752Z,2876.00
2019-06-20T07:23:58.799Z,3220.00
2019-06-20T07:24:58.719Z,3436.00
2019-06-20T07:25:58.755Z,3372.00
2019-06-20T07:26:58.689Z,3448.00
2019-06-20T07:27:58.678Z,3572.00
2019-06-20T07:28:58.666Z,3684.00
2019-06-20T07:29:58.664Z,3808.00
2019-06-20T07:30:58.656Z,3888.00
2019-06-20T07:31:58.653Z,4032.00
2019-06-20T07:32:58.618Z,4152.00
2019-06-20T07:33:58.609Z,4024.00
2019-06-20T07:34:58.607Z,3400.00
2019-06-20T07:35:58.599Z,2760.00
2019-06-20T07:36:58.587Z,2252.00
2019-06-20T07:37:58.592Z,1860.00
2019-06-20T07:38:58.557Z,1600.00
2019-06-20T07:39:58.546Z,1456.00
2019-06-20T07:40:58.546Z,1352.00
2019-06-20T07:41:58.527Z,1252.00
2019-06-20T07:42:58.526Z,1236.00
2019-06-20T07:43:58.503Z,1260.00
2019-06-20T07:44:58.510Z,1272.00
2019-06-20T07:46:02.856Z,1256.00
2019-06-20T07:46:58.479Z,1220.00
2019-06-20T07:47:58.462Z,1244.00
2019-06-20T07:48:59.444Z,1364.00
2019-06-20T07:49:58.455Z,1520.00
2019-06-20T07:51:07.442Z,1596.00
2019-06-20T07:51:58.431Z,1600.00
2019-06-20T07:53:02.583Z,1616.00
2019-06-20T07:53:58.390Z,1632.00
2019-06-20T07:54:58.377Z,1604.00
2019-06-20T07:55:58.380Z,1604.00
2019-06-20T07:56:58.358Z,1708.00
2019-06-20T07:57:58.350Z,1832.00
2019-06-20T07:58:58.346Z,1936.00
2019-06-20T07:59:58.330Z,1972.00
2019-06-20T08:00:58.460Z,1992.00
2019-06-20T08:01:58.303Z,2132.00
2019-06-20T08:02:58.294Z,2272.00
2019-06-20T08:03:58.280Z,2292.00
2019-06-20T08:04:58.273Z,2236.00
2019-06-20T08:05:58.277Z,2216.00
2019-06-20T08:06:58.277Z,2164.00
2019-06-20T08:07:58.249Z,2088.00
2019-06-20T08:08:58.257Z,2072.00
2019-06-20T08:09:58.218Z,2180.00
2019-06-20T08:10:58.205Z,2184.00
2019-06-20T08:11:58.238Z,2224.00
2019-06-20T08:12:58.184Z,2224.00
2019-06-20T08:13:58.183Z,2240.00
2019-06-20T08:15:13.771Z,2480.00
2019-06-20T08:15:59.161Z,2740.00
2019-06-20T08:16:58.161Z,2924.00
2019-06-20T08:17:58.135Z,3216.00
2019-06-20T08:18:58.160Z,3448.00
2019-06-20T08:19:58.201Z,3740.00
2019-06-20T08:20:58.107Z,4184.00
2019-06-20T08:21:58.103Z,4424.00
2019-06-20T08:22:58.084Z,4256.00
2019-06-20T08:23:58.124Z,3796.00
2019-06-20T08:24:59.024Z,3392.00
2019-06-20T08:25:59.249Z,3380.00
2019-06-20T08:26:58.710Z,3380.00
2019-06-20T08:27:59.427Z,3336.00
2019-06-20T08:29:10.231Z,3292.00
2019-06-20T08:29:59.125Z,3308.00
2019-06-20T08:30:58.963Z,3184.00
2019-06-20T08:31:59.480Z,3320.00
2019-06-20T08:32:59.865Z,3404.00
2019-06-20T08:33:59.266Z,3664.00
2019-06-20T08:34:59.419Z,3924.00
2019-06-20T08:35:58.928Z,4296.00
2019-06-20T08:36:59.241Z,5004.00
2019-06-20T08:37:59.322Z,5808.00
2019-06-20T08:38:58.735Z,6932.00
2019-06-20T08:39:58.424Z,7896.00
2019-06-20T08:40:58.450Z,11768.00
2019-06-20T08:41:59.231Z,12036.00
2019-06-20T08:42:58.855Z,11564.00
2019-06-20T08:43:58.449Z,7632.00
2019-06-20T08:44:57.961Z,7616.00
2019-06-20T08:45:57.928Z,6660.00
2019-06-20T08:46:59.376Z,6612.00
2019-06-20T08:47:58.330Z,8052.00
2019-06-20T08:48:58.264Z,7996.00
2019-06-20T08:49:58.454Z,8984.00
2019-06-20T08:50:58.541Z,9708.00
2019-06-20T08:51:59.123Z,10372.00
2019-06-20T08:52:58.477Z,10732.00
2019-06-20T08:53:59.215Z,10612.00
2019-06-20T08:54:59.253Z,10244.00
2019-06-20T08:55:59.317Z,6260.00
2019-06-20T08:56:58.986Z,6684.00
2019-06-20T08:57:59.413Z,10384.00
2019-06-20T08:58:58.549Z,10764.00
2019-06-20T08:59:58.785Z,10796.00
2019-06-20T09:00:59.645Z,11300.00
2019-06-20T09:02:00.274Z,10696.00
2019-06-20T09:02:58.612Z,9088.00
2019-06-20T09:03:58.500Z,4436.00
2019-06-20T09:04:58.041Z,3400.00
2019-06-20T09:05:58.262Z,2984.00
2019-06-20T09:06:59.153Z,2716.00
2019-06-20T09:07:59.000Z,2492.00
2019-06-20T09:08:58.260Z,2404.00
2019-06-20T09:09:57.656Z,2272.00
2019-06-20T09:10:57.560Z,2108.00
2019-06-20T09:11:58.586Z,2032.00
2019-06-20T09:12:57.576Z,2008.00
2019-06-20T09:13:57.531Z,1952.00
2019-06-20T09:14:58.878Z,1920.00
2019-06-20T09:15:58.721Z,2012.00
2019-06-20T09:16:59.222Z,2340.00
2019-06-20T09:17:58.471Z,3028.00
2019-06-20T09:18:58.419Z,3084.00
2019-06-20T09:19:58.046Z,2732.00
2019-06-20T09:20:58.090Z,2240.00
2019-06-20T09:21:57.996Z,2076.00
2019-06-20T09:22:58.838Z,2236.00
2019-06-20T09:23:57.771Z,2556.00
2019-06-20T09:24:58.473Z,3384.00
2019-06-20T09:25:57.595Z,4176.00
2019-06-20T09:26:57.389Z,4712.00
2019-06-20T09:27:58.127Z,5852.00
2019-06-20T09:28:57.367Z,6224.00
2019-06-20T09:29:58.522Z,6440.00
2019-06-20T09:30:57.382Z,5660.00
2019-06-20T09:32:06.688Z,4272.00
2019-06-20T09:32:57.830Z,4040.00
2019-06-20T09:34:01.616Z,3948.00
2019-06-20T09:34:58.678Z,3928.00
2019-06-20T09:35:57.529Z,3664.00
2019-06-20T09:36:57.514Z,3664.00
2019-06-20T09:38:04.312Z,3960.00
2019-06-20T09:38:57.904Z,3732.00
2019-06-20T09:39:57.298Z,4008.00
2019-06-20T09:40:57.227Z,4336.00
2019-06-20T09:41:57.214Z,5704.00
2019-06-20T09:42:58.635Z,7012.00
2019-06-20T09:43:58.488Z,9940.00
2019-06-20T09:44:58.353Z,11772.00
2019-06-20T09:45:58.378Z,11852.00
2019-06-20T09:46:58.213Z,11824.00
2019-06-20T09:47:58.268Z,9584.00
2019-06-20T09:48:58.673Z,7984.00
2019-06-20T09:49:58.638Z,6916.00
2019-06-20T09:50:57.167Z,6520.00
2019-06-20T09:51:58.617Z,6692.00
2019-06-20T09:52:58.298Z,6748.00
2019-06-20T09:53:58.202Z,7824.00
2019-06-20T09:54:58.239Z,7616.00
2019-06-20T09:55:57.812Z,7856.00
2019-06-20T09:56:58.390Z,7640.00
2019-06-20T09:57:58.187Z,8040.00
2019-06-20T09:58:58.239Z,8232.00
2019-06-20T10:00:07.902Z,8016.00
2019-06-20T10:00:58.012Z,8072.00
2019-06-20T10:01:58.742Z,8252.00
2019-06-20T10:02:57.865Z,8736.00
2019-06-20T10:03:56.989Z,9196.00
2019-06-20T10:04:57.032Z,10124.00
2019-06-20T10:05:56.963Z,10200.00
2019-06-20T10:06:56.946Z,10104.00
2019-06-20T10:07:56.976Z,9408.00
2019-06-20T10:08:56.939Z,8948.00
2019-06-20T10:09:56.914Z,8864.00
2019-06-20T10:10:56.902Z,8512.00
2019-06-20T10:11:56.892Z,8784.00
2019-06-20T10:12:56.891Z,9400.00
2019-06-20T10:13:56.874Z,9852.00
2019-06-20T10:14:56.864Z,8776.00
2019-06-20T10:15:56.853Z,8288.00
2019-06-20T10:16:56.967Z,8312.00
2019-06-20T10:17:58.505Z,8328.00
2019-06-20T10:18:56.888Z,9032.00
2019-06-20T10:19:56.823Z,8308.00
2019-06-20T10:20:57.704Z,7368.00
2019-06-20T10:21:57.499Z,6776.00
2019-06-20T10:22:57.483Z,6688.00
2019-06-20T10:23:56.798Z,6644.00
2019-06-20T10:24:57.869Z,6996.00
2019-06-20T10:25:58.155Z,7448.00
2019-06-20T10:26:57.937Z,8240.00
2019-06-20T10:27:57.902Z,8172.00
2019-06-20T10:28:57.418Z,8140.00
2019-06-20T10:30:10.474Z,7328.00
2019-06-20T10:30:57.895Z,8096.00
2019-06-20T10:31:57.298Z,7584.00
2019-06-20T10:32:57.702Z,7824.00
2019-06-20T10:33:56.937Z,8388.00
2019-06-20T10:34:57.171Z,7308.00
2019-06-20T10:35:57.267Z,8604.00
2019-06-20T10:36:57.070Z,8452.00
2019-06-20T10:37:57.164Z,8716.00
2019-06-20T10:38:56.927Z,10056.00
2019-06-20T10:39:56.812Z,11120.00
2019-06-20T10:40:59.898Z,9432.00
2019-06-20T10:41:57.245Z,8304.00
2019-06-20T10:42:57.014Z,8136.00
2019-06-20T10:43:56.697Z,8304.00
2019-06-20T10:44:56.538Z,8944.00
2019-06-20T10:45:56.750Z,9428.00
2019-06-20T10:46:56.533Z,9316.00
2019-06-20T10:47:56.508Z,9216.00
2019-06-20T10:48:56.529Z,9324.00
2019-06-20T10:49:56.488Z,9176.00
2019-06-20T10:50:56.472Z,8804.00
2019-06-20T10:51:56.460Z,8788.00
2019-06-20T10:52:56.448Z,9304.00
2019-06-20T10:53:56.449Z,9564.00
2019-06-20T10:54:56.429Z,9852.00
2019-06-20T10:55:56.416Z,10216.00
2019-06-20T10:56:56.405Z,9912.00
2019-06-20T10:57:56.398Z,10192.00
2019-06-20T10:58:56.435Z,10732.00
2019-06-20T10:59:56.385Z,11268.00
2019-06-20T11:00:56.395Z,11440.00
2019-06-20T11:01:56.353Z,11856.00
2019-06-20T11:02:56.341Z,11116.00
2019-06-20T11:03:56.344Z,9456.00
2019-06-20T11:04:56.327Z,8308.00
2019-06-20T11:05:56.310Z,7136.00
2019-06-20T11:06:56.298Z,7104.00
2019-06-20T11:07:56.290Z,7080.00
2019-06-20T11:08:56.292Z,7308.00
2019-06-20T11:09:56.275Z,7508.00
2019-06-20T11:10:56.281Z,7288.00
2019-06-20T11:11:56.251Z,7124.00
2019-06-20T11:12:56.585Z,7800.00
2019-06-20T11:13:56.242Z,7908.00
2019-06-20T11:14:56.211Z,7896.00
2019-06-20T11:15:56.200Z,8068.00
2019-06-20T11:16:56.191Z,7644.00
2019-06-20T11:17:57.065Z,7568.00
2019-06-20T11:18:56.184Z,7404.00
2019-06-20T11:19:57.022Z,7400.00
2019-06-20T11:20:56.192Z,7460.00
2019-06-20T11:21:56.135Z,7112.00
2019-06-20T11:22:56.135Z,7068.00
2019-06-20T11:23:56.123Z,7064.00
2019-06-20T11:24:56.107Z,7392.00
2019-06-20T11:25:56.107Z,7440.00
2019-06-20T11:26:56.088Z,7576.00
2019-06-20T11:27:56.078Z,7760.00
2019-06-20T11:28:57.099Z,7588.00
2019-06-20T11:30:02.637Z,7852.00
2019-06-20T11:33:08.048Z,6912.00
2019-06-20T11:34:07.776Z,7544.00
2019-06-20T11:35:07.752Z,6952.00
2019-06-20T11:36:07.752Z,6952.00
2019-06-20T11:37:07.740Z,7300.00
2019-06-20T11:38:07.721Z,8268.00
2019-06-20T11:39:07.722Z,9212.00
2019-06-20T11:40:15.993Z,8540.00
2019-06-20T11:41:07.691Z,8860.00
2019-06-20T11:42:07.683Z,9008.00
2019-06-20T11:43:07.677Z,8848.00
2019-06-20T11:44:07.781Z,9208.00
2019-06-20T11:45:07.659Z,7772.00
2019-06-20T11:46:07.639Z,6848.00
2019-06-20T11:47:07.628Z,7372.00
2019-06-20T11:48:07.623Z,8640.00
2019-06-20T11:49:07.616Z,9212.00
2019-06-20T11:50:07.601Z,5436.00
2019-06-20T11:51:07.594Z,4684.00
2019-06-20T11:52:07.579Z,4448.00
2019-06-20T11:53:07.568Z,4228.00
2019-06-20T11:54:07.879Z,4364.00
2019-06-20T11:55:07.543Z,4024.00
2019-06-20T11:56:07.543Z,4220.00
2019-06-20T11:57:07.530Z,5032.00
2019-06-20T11:58:07.513Z,6880.00
2019-06-20T11:59:07.503Z,7464.00
2019-06-20T12:00:07.502Z,6752.00
2019-06-20T12:01:07.479Z,6228.00
2019-06-20T12:02:07.473Z,6308.00
2019-06-20T12:03:07.459Z,6192.00
2019-06-20T12:04:09.422Z,6460.00
2019-06-20T12:05:07.461Z,6456.00
2019-06-20T12:06:07.436Z,6132.00
2019-06-20T12:07:07.418Z,6172.00
2019-06-20T12:08:07.412Z,6072.00
2019-06-20T12:09:07.425Z,6060.00
2019-06-20T12:10:07.398Z,6144.00
2019-06-20T12:11:07.384Z,6256.00
2019-06-20T12:12:07.368Z,6388.00
2019-06-20T12:13:07.357Z,6624.00
2019-06-20T12:14:07.411Z,6932.00
2019-06-20T12:15:07.349Z,7436.00
2019-06-20T12:16:07.340Z,8084.00
2019-06-20T12:17:07.323Z,8296.00
2019-06-20T12:18:07.328Z,8116.00
2019-06-20T12:19:07.299Z,7916.00
2019-06-20T12:20:07.294Z,8260.00
2019-06-20T12:21:07.277Z,8564.00
2019-06-20T12:22:07.264Z,8848.00
2019-06-20T12:23:07.255Z,8292.00
2019-06-20T12:24:08.678Z,9780.00
2019-06-20T12:25:07.244Z,11160.00